createdAt,value
2019-03-28T00:00:36.514Z,7.46
2019-03-28T00:03:25.715Z,7.46
2019-03-28T00:06:15.554Z,7.46
2019-03-28T00:09:07.771Z,7.43
2019-03-28T00:11:57.089Z,7.39
2019-03-28T00:14:46.262Z,7.33
2019-03-28T00:17:36.062Z,7.40
2019-03-28T00:20:25.849Z,7.40
2019-03-28T00:23:39.843Z,7.40
2019-03-28T00:26:30.413Z,7.34
2019-03-28T00:29:19.682Z,7.13
2019-03-28T00:32:09.345Z,7.13
2019-03-28T00:34:58.302Z,7.22
2019-03-28T00:37:48.104Z,7.29
2019-03-28T00:40:37.401Z,7.32
2019-03-28T00:43:26.970Z,7.34
2019-03-28T00:46:16.491Z,7.27
2019-03-28T00:49:05.704Z,7.32
2019-03-28T00:51:55.054Z,7.30
2019-03-28T00:54:44.379Z,7.29
2019-03-28T00:57:34.058Z,7.24
2019-03-28T01:00:23.872Z,7.22
2019-03-28T01:03:13.423Z,7.26
2019-03-28T01:06:02.855Z,7.25
2019-03-28T01:08:51.707Z,7.14
2019-03-28T01:11:41.520Z,7.10
2019-03-28T01:14:30.222Z,7.13
2019-03-28T01:17:19.175Z,7.14
2019-03-28T01:20:09.584Z,7.20
2019-03-28T01:22:58.768Z,7.18
2019-03-28T01:25:48.375Z,7.18
2019-03-28T01:28:37.641Z,7.18
2019-03-28T01:31:26.512Z,7.20
2019-03-28T01:34:16.026Z,7.24
2019-03-28T01:37:05.402Z,7.28
2019-03-28T01:39:54.706Z,7.28
2019-03-28T01:42:43.723Z,7.28
2019-03-28T01:45:33.327Z,7.29
2019-03-28T01:48:22.382Z,7.20
2019-03-28T01:51:11.404Z,7.04
2019-03-28T01:54:00.252Z,7.03
2019-03-28T01:56:49.608Z,6.95
2019-03-28T01:59:39.188Z,7.01
2019-03-28T02:02:28.618Z,7.05
2019-03-28T02:05:18.246Z,7.12
2019-03-28T02:08:08.463Z,7.10
2019-03-28T02:10:57.726Z,7.04
2019-03-28T02:13:48.236Z,6.98
2019-03-28T02:16:37.612Z,6.95
2019-03-28T02:19:26.583Z,7.03
2019-03-28T02:22:16.078Z,7.01
2019-03-28T02:25:05.894Z,6.94
2019-03-28T02:27:55.822Z,7.00
2019-03-28T02:30:45.438Z,7.05
2019-03-28T02:33:34.631Z,7.09
2019-03-28T02:36:23.993Z,7.07
2019-03-28T02:39:13.354Z,7.04
2019-03-28T02:42:02.443Z,7.10
2019-03-28T02:44:51.246Z,7.08
2019-03-28T02:47:39.989Z,6.99
2019-03-28T02:50:29.576Z,6.94
2019-03-28T02:53:19.267Z,6.93
2019-03-28T02:56:08.822Z,6.94
2019-03-28T02:58:58.144Z,6.92
2019-03-28T03:01:47.666Z,6.93
2019-03-28T03:04:37.159Z,6.91
2019-03-28T03:07:26.324Z,6.93
2019-03-28T03:10:16.956Z,6.96
2019-03-28T03:13:06.649Z,6.96
2019-03-28T03:15:56.771Z,6.93
2019-03-28T03:18:46.476Z,6.94
2019-03-28T03:21:36.059Z,6.95
2019-03-28T03:24:25.901Z,6.91
2019-03-28T03:27:15.010Z,6.88
2019-03-28T03:30:06.266Z,6.84
2019-03-28T03:32:55.463Z,6.82
2019-03-28T03:35:44.857Z,6.80
2019-03-28T03:38:34.327Z,6.82
2019-03-28T03:41:23.201Z,6.81
2019-03-28T03:44:12.000Z,6.80
2019-03-28T03:47:01.714Z,6.82
2019-03-28T03:49:50.244Z,6.79
2019-03-28T03:52:39.899Z,6.77
2019-03-28T03:55:29.244Z,6.74
2019-03-28T03:58:19.247Z,6.71
2019-03-28T04:01:09.038Z,6.69
2019-03-28T04:03:58.417Z,6.74
2019-03-28T04:06:48.027Z,6.71
2019-03-28T04:09:37.663Z,6.71
2019-03-28T04:12:27.182Z,6.74
2019-03-28T04:15:16.189Z,6.73
2019-03-28T04:18:05.623Z,6.73
2019-03-28T04:20:55.411Z,6.72
2019-03-28T04:23:44.799Z,6.72
2019-03-28T04:26:34.425Z,6.73
2019-03-28T04:29:23.581Z,6.69
2019-03-28T04:32:13.491Z,6.68
2019-03-28T04:35:03.614Z,6.65
2019-03-28T04:37:53.103Z,6.66
2019-03-28T04:40:42.742Z,6.60
2019-03-28T04:43:31.412Z,6.60
2019-03-28T04:46:20.872Z,6.61
2019-03-28T04:49:10.284Z,6.62
2019-03-28T04:51:59.127Z,6.66
2019-03-28T04:54:48.438Z,6.63
2019-03-28T04:57:40.869Z,6.60
2019-03-28T05:00:28.700Z,6.59
2019-03-28T05:03:17.979Z,6.58
2019-03-28T05:06:07.129Z,6.59
2019-03-28T05:08:56.524Z,6.59
2019-03-28T05:11:45.664Z,6.58
2019-03-28T05:14:35.507Z,6.58
2019-03-28T05:17:24.844Z,6.58
2019-03-28T05:20:14.913Z,6.58
2019-03-28T05:23:04.678Z,6.61
2019-03-28T05:25:54.122Z,6.62
2019-03-28T05:28:56.625Z,6.64
2019-03-28T05:31:34.382Z,6.69
2019-03-28T05:34:24.072Z,6.72
2019-03-28T05:37:14.024Z,6.75
2019-03-28T05:40:03.662Z,6.77
2019-03-28T05:42:52.511Z,6.84
2019-03-28T05:45:41.971Z,6.87
2019-03-28T05:48:31.390Z,6.90
2019-03-28T05:51:20.354Z,6.88
2019-03-28T05:54:10.173Z,6.96
2019-03-28T05:56:59.661Z,6.98
2019-03-28T05:59:48.829Z,7.03
2019-03-28T06:02:38.090Z,7.06
2019-03-28T06:05:27.481Z,7.08
2019-03-28T06:08:17.001Z,7.09
2019-03-28T06:11:06.339Z,7.15
2019-03-28T06:13:55.938Z,7.11
2019-03-28T06:16:45.211Z,6.99
2019-03-28T06:19:34.315Z,7.15
2019-03-28T06:22:23.470Z,7.21
2019-03-28T06:25:13.176Z,7.26
2019-03-28T06:28:02.276Z,7.25
2019-03-28T06:30:51.957Z,7.32
2019-03-28T06:33:40.756Z,7.37
2019-03-28T06:36:30.395Z,7.33
2019-03-28T06:39:19.977Z,7.37
2019-03-28T06:42:09.612Z,7.45
2019-03-28T06:44:58.536Z,7.56
2019-03-28T06:47:48.486Z,7.62
2019-03-28T06:50:37.735Z,7.61
2019-03-28T06:53:27.049Z,7.73
2019-03-28T06:56:16.267Z,7.82
2019-03-28T06:59:07.013Z,7.89
2019-03-28T07:01:56.393Z,7.89
2019-03-28T07:04:45.535Z,8.02
2019-03-28T07:07:35.166Z,8.09
2019-03-28T07:10:24.567Z,8.15
2019-03-28T07:13:13.425Z,8.18
2019-03-28T07:16:02.635Z,8.24
2019-03-28T07:18:51.856Z,8.20
2019-03-28T07:21:41.151Z,8.33
2019-03-28T07:24:30.781Z,8.40
2019-03-28T07:27:20.555Z,8.48
2019-03-28T07:30:11.683Z,8.49
2019-03-28T07:33:00.820Z,8.63
2019-03-28T07:35:50.261Z,8.71
2019-03-28T07:38:39.400Z,8.70
2019-03-28T07:41:28.695Z,8.73
2019-03-28T07:44:18.261Z,8.81
2019-03-28T07:47:07.519Z,8.75
2019-03-28T07:49:57.101Z,8.94
2019-03-28T07:52:46.344Z,8.94
2019-03-28T07:55:35.744Z,9.07
2019-03-28T07:58:24.404Z,9.05
2019-03-28T08:01:14.225Z,9.08
2019-03-28T08:04:03.577Z,9.16
2019-03-28T08:06:53.243Z,9.22
2019-03-28T08:09:42.903Z,9.33
2019-03-28T08:12:32.379Z,9.27
2019-03-28T08:15:21.908Z,9.36
2019-03-28T08:18:11.369Z,9.48
2019-03-28T08:21:01.170Z,9.58
2019-03-28T08:23:50.681Z,9.74
2019-03-28T08:26:40.011Z,9.90
2019-03-28T08:29:29.785Z,9.97
2019-03-28T08:32:22.355Z,10.11
2019-03-28T08:35:12.429Z,10.23
2019-03-28T08:38:02.026Z,10.38
2019-03-28T08:40:51.918Z,10.37
2019-03-28T08:43:42.671Z,10.44
2019-03-28T08:46:31.848Z,10.50
2019-03-28T08:49:21.011Z,10.37
2019-03-28T08:52:11.955Z,10.43
2019-03-28T08:55:01.594Z,10.54
2019-03-28T08:57:50.917Z,10.60
2019-03-28T09:00:51.735Z,10.55
2019-03-28T09:03:31.295Z,10.68
2019-03-28T09:06:20.750Z,10.64
2019-03-28T09:09:11.255Z,10.62
2019-03-28T09:12:00.829Z,10.63
2019-03-28T09:14:50.342Z,10.64
2019-03-28T09:17:40.238Z,10.74
2019-03-28T09:20:29.291Z,10.90
2019-03-28T09:23:18.877Z,11.05
2019-03-28T09:26:08.316Z,11.15
2019-03-28T09:28:58.000Z,11.25
2019-03-28T09:31:47.166Z,11.18
2019-03-28T09:34:36.004Z,11.21
2019-03-28T09:37:25.382Z,11.20
2019-03-28T09:40:14.527Z,11.22
2019-03-28T09:43:04.061Z,11.31
2019-03-28T09:45:53.837Z,11.35
2019-03-28T09:48:43.639Z,11.45
2019-03-28T09:51:35.215Z,11.55
2019-03-28T09:54:23.492Z,11.69
2019-03-28T09:57:13.125Z,11.85
2019-03-28T10:00:02.715Z,11.93
2019-03-28T10:02:52.313Z,12.06
2019-03-28T10:05:41.147Z,12.11
2019-03-28T10:08:30.568Z,12.20
2019-03-28T10:11:19.965Z,12.27
2019-03-28T10:14:11.319Z,12.26
2019-03-28T10:17:01.434Z,12.15
2019-03-28T10:19:51.185Z,12.32
2019-03-28T10:22:40.880Z,12.54
2019-03-28T10:25:30.400Z,12.66
2019-03-28T10:28:20.003Z,12.64
2019-03-28T10:31:16.473Z,12.72
2019-03-28T10:33:59.724Z,12.90
2019-03-28T10:36:49.363Z,13.06
2019-03-28T10:39:39.363Z,13.25
2019-03-28T10:42:29.163Z,13.36
2019-03-28T10:45:18.626Z,13.47
2019-03-28T10:48:07.835Z,13.44
2019-03-28T10:50:57.497Z,13.61
2019-03-28T10:53:46.942Z,13.79
2019-03-28T10:56:50.804Z,13.89
2019-03-28T10:59:27.641Z,13.99
2019-03-28T11:02:16.806Z,14.16
2019-03-28T11:05:07.059Z,14.38
2019-03-28T11:07:56.668Z,14.52
2019-03-28T11:10:46.113Z,14.74
2019-03-28T11:13:35.710Z,14.73
2019-03-28T11:16:25.304Z,14.52
2019-03-28T11:19:15.930Z,14.43
2019-03-28T11:22:05.776Z,14.36
2019-03-28T11:24:55.233Z,14.32
2019-03-28T11:27:44.676Z,14.17
2019-03-28T11:30:34.408Z,14.29
2019-03-28T11:33:23.893Z,14.25
2019-03-28T11:36:13.743Z,14.19
2019-03-28T11:39:02.918Z,14.24
2019-03-28T11:41:52.699Z,14.35
2019-03-28T11:44:43.333Z,14.37
2019-03-28T11:47:32.864Z,14.25
2019-03-28T11:50:22.692Z,14.24
2019-03-28T11:53:12.121Z,14.40
2019-03-28T11:56:01.575Z,14.49
2019-03-28T11:58:51.202Z,14.73
2019-03-28T12:01:40.686Z,15.05
2019-03-28T12:04:30.106Z,15.20
2019-03-28T12:07:19.724Z,15.26
2019-03-28T12:10:11.957Z,15.24
2019-03-28T12:13:01.134Z,15.29
2019-03-28T12:15:50.972Z,15.39
2019-03-28T12:18:40.397Z,15.40
2019-03-28T12:21:29.939Z,15.60
2019-03-28T12:24:18.998Z,15.68
2019-03-28T12:27:08.528Z,15.69
2019-03-28T12:29:58.383Z,15.79
2019-03-28T12:32:47.925Z,15.72
2019-03-28T12:35:37.666Z,15.82
2019-03-28T12:38:26.992Z,15.92
2019-03-28T12:41:16.749Z,16.06
2019-03-28T12:44:07.882Z,16.04
2019-03-28T12:46:56.841Z,16.05
2019-03-28T12:49:46.218Z,15.94
2019-03-28T12:52:36.103Z,15.74
2019-03-28T12:55:25.820Z,15.84
2019-03-28T12:58:14.750Z,15.81
2019-03-28T13:01:04.223Z,15.65
2019-03-28T13:03:53.129Z,15.78
2019-03-28T13:06:42.641Z,16.01
2019-03-28T13:09:31.934Z,16.16
2019-03-28T13:12:21.210Z,15.92
2019-03-28T13:15:10.861Z,16.04
2019-03-28T13:18:00.404Z,16.21
2019-03-28T13:20:49.436Z,16.34
2019-03-28T13:23:38.332Z,16.47
2019-03-28T13:26:27.748Z,16.76
2019-03-28T13:29:17.141Z,17.09
2019-03-28T13:32:06.654Z,16.80
2019-03-28T13:34:56.279Z,17.09
2019-03-28T13:37:45.847Z,17.09
2019-03-28T13:40:35.534Z,17.05
2019-03-28T13:43:25.229Z,16.95
2019-03-28T13:46:14.691Z,16.60
2019-03-28T13:49:03.645Z,16.43
2019-03-28T13:51:53.007Z,16.43
2019-03-28T13:54:41.724Z,16.46
2019-03-28T13:57:31.197Z,15.95
2019-03-28T14:00:33.396Z,15.73
2019-03-28T14:03:22.970Z,15.61
2019-03-28T14:06:12.316Z,15.48
2019-03-28T14:09:02.153Z,15.50
2019-03-28T14:11:51.861Z,15.56
2019-03-28T14:14:41.164Z,15.53
2019-03-28T14:17:30.978Z,15.31
2019-03-28T14:20:22.329Z,15.27
2019-03-28T14:23:10.722Z,15.34
2019-03-28T14:26:00.006Z,15.40
2019-03-28T14:28:50.352Z,15.34
2019-03-28T14:31:40.153Z,15.40
2019-03-28T14:34:29.355Z,15.18
2019-03-28T14:37:19.832Z,15.38
2019-03-28T14:40:10.431Z,15.26
2019-03-28T14:42:59.941Z,15.23
2019-03-28T14:45:49.243Z,15.35
2019-03-28T14:48:38.983Z,15.42
2019-03-28T14:51:28.601Z,15.51
2019-03-28T14:54:18.105Z,15.63
2019-03-28T14:57:07.877Z,15.77
2019-03-28T14:59:57.816Z,15.67
2019-03-28T15:02:46.794Z,15.60
2019-03-28T15:05:36.189Z,15.58
2019-03-28T15:08:25.631Z,15.41
2019-03-28T15:11:15.288Z,15.41
2019-03-28T15:14:05.042Z,15.25
2019-03-28T15:16:54.816Z,15.06
2019-03-28T15:19:44.100Z,15.07
2019-03-28T15:22:33.713Z,14.98
2019-03-28T15:25:22.558Z,14.97
2019-03-28T15:28:12.233Z,15.04
2019-03-28T15:31:01.311Z,14.93
2019-03-28T15:33:50.810Z,14.95
2019-03-28T15:36:42.057Z,14.88
2019-03-28T15:39:32.275Z,14.68
2019-03-28T15:42:21.548Z,14.85
2019-03-28T15:45:11.258Z,14.53
2019-03-28T15:48:01.168Z,14.76
2019-03-28T15:50:50.715Z,14.82
2019-03-28T15:53:40.347Z,14.94
2019-03-28T15:56:29.702Z,14.89
2019-03-28T15:59:18.960Z,14.98
2019-03-28T16:02:08.451Z,14.93
2019-03-28T16:04:58.098Z,14.78
2019-03-28T16:07:47.693Z,14.68
2019-03-28T16:10:36.806Z,14.72
2019-03-28T16:13:25.774Z,14.72
2019-03-28T16:16:15.540Z,14.62
2019-03-28T16:19:05.856Z,14.69
2019-03-28T16:21:55.399Z,14.71
2019-03-28T16:24:46.507Z,14.69
2019-03-28T16:27:35.524Z,14.56
2019-03-28T16:30:36.117Z,14.48
2019-03-28T16:33:27.326Z,14.39
2019-03-28T16:36:17.066Z,14.33
2019-03-28T16:39:07.507Z,13.83
2019-03-28T16:41:56.986Z,13.91
2019-03-28T16:44:46.419Z,13.76
2019-03-28T16:47:36.165Z,13.72
2019-03-28T16:50:25.673Z,13.68
2019-03-28T16:53:15.188Z,13.67
2019-03-28T16:56:04.248Z,13.64
2019-03-28T16:58:55.388Z,13.58
2019-03-28T17:01:44.222Z,13.55
2019-03-28T17:04:33.175Z,13.47
2019-03-28T17:07:24.363Z,13.42
2019-03-28T17:10:20.911Z,13.28
2019-03-28T17:13:09.693Z,13.28
2019-03-28T17:15:58.745Z,13.26
2019-03-28T17:18:48.208Z,13.17
2019-03-28T17:21:37.414Z,13.15
2019-03-28T17:24:28.010Z,13.12
2019-03-28T17:27:17.353Z,13.04
2019-03-28T17:30:07.532Z,12.87
2019-03-28T17:32:57.269Z,12.77
2019-03-28T17:35:46.121Z,12.64
2019-03-28T17:38:35.947Z,12.59
2019-03-28T17:41:25.413Z,12.56
2019-03-28T17:44:14.857Z,12.53
2019-03-28T17:47:04.466Z,12.35
2019-03-28T17:49:53.957Z,12.25
2019-03-28T17:52:43.277Z,12.23
2019-03-28T17:55:32.717Z,11.97
2019-03-28T17:58:21.904Z,12.03
2019-03-28T18:01:11.669Z,12.11
2019-03-28T18:04:01.039Z,12.11
2019-03-28T18:06:50.600Z,12.15
2019-03-28T18:09:40.252Z,12.12
2019-03-28T18:12:30.055Z,12.06
2019-03-28T18:15:19.755Z,12.07
2019-03-28T18:18:11.840Z,12.12
2019-03-28T18:21:01.321Z,12.11
2019-03-28T18:23:50.373Z,12.08
2019-03-28T18:26:39.851Z,12.09
2019-03-28T18:29:29.326Z,11.99
2019-03-28T18:32:19.135Z,11.86
2019-03-28T18:35:09.334Z,11.84
2019-03-28T18:37:58.686Z,11.86
2019-03-28T18:40:48.474Z,11.87
2019-03-28T18:43:38.370Z,11.86
2019-03-28T18:46:27.749Z,11.83
2019-03-28T18:49:18.045Z,11.78
2019-03-28T18:52:07.494Z,11.79
2019-03-28T18:54:57.201Z,11.78
2019-03-28T18:57:46.776Z,11.59
2019-03-28T19:00:36.414Z,11.59
2019-03-28T19:03:26.245Z,11.57
2019-03-28T19:06:16.126Z,11.44
2019-03-28T19:09:07.380Z,11.42
2019-03-28T19:11:56.753Z,11.41
2019-03-28T19:14:46.411Z,11.45
2019-03-28T19:17:36.375Z,11.48
2019-03-28T19:20:25.857Z,11.52
2019-03-28T19:23:15.625Z,11.50
2019-03-28T19:26:04.826Z,11.47
2019-03-28T19:28:56.215Z,11.46
2019-03-28T19:31:44.871Z,11.50
2019-03-28T19:34:33.819Z,11.47
2019-03-28T19:37:24.760Z,11.51
2019-03-28T19:40:15.193Z,11.51
2019-03-28T19:43:04.873Z,11.44
2019-03-28T19:45:54.344Z,11.30
2019-03-28T19:48:44.168Z,11.28
2019-03-28T19:51:34.052Z,11.22
2019-03-28T19:54:23.606Z,11.28
2019-03-28T19:57:13.425Z,11.27
2019-03-28T20:00:02.852Z,11.26
2019-03-28T20:02:52.370Z,11.26
2019-03-28T20:05:47.867Z,11.29
2019-03-28T20:08:32.579Z,11.31
2019-03-28T20:11:22.194Z,11.29
2019-03-28T20:14:11.945Z,11.30
2019-03-28T20:17:01.826Z,11.19
2019-03-28T20:19:50.998Z,11.25
2019-03-28T20:22:40.719Z,11.25
2019-03-28T20:25:30.201Z,11.22
2019-03-28T20:28:19.722Z,11.24
2019-03-28T20:31:09.212Z,11.22
2019-03-28T20:33:59.781Z,11.20
2019-03-28T20:36:52.580Z,11.20
2019-03-28T20:39:39.597Z,11.22
2019-03-28T20:42:29.023Z,11.18
2019-03-28T20:45:21.528Z,11.18
2019-03-28T20:48:10.618Z,11.17
2019-03-28T20:51:03.287Z,11.15
2019-03-28T20:53:50.936Z,11.16
2019-03-28T20:56:40.307Z,11.13
2019-03-28T20:59:29.093Z,11.12
2019-03-28T21:02:18.863Z,11.10
2019-03-28T21:05:09.639Z,11.10
2019-03-28T21:07:59.173Z,11.13
2019-03-28T21:10:48.776Z,11.12
2019-03-28T21:13:38.109Z,11.06
2019-03-28T21:16:27.628Z,11.03
2019-03-28T21:19:16.995Z,10.97
2019-03-28T21:22:06.696Z,11.01
2019-03-28T21:24:57.123Z,10.99
2019-03-28T21:27:46.115Z,11.01
2019-03-28T21:30:46.502Z,11.01
2019-03-28T21:33:26.360Z,10.97
2019-03-28T21:36:28.988Z,10.97
2019-03-28T21:39:09.026Z,10.99
2019-03-28T21:41:58.440Z,10.94
2019-03-28T21:44:48.897Z,10.95
2019-03-28T21:47:38.112Z,10.97
2019-03-28T21:50:27.683Z,10.82
2019-03-28T21:53:19.735Z,10.87
2019-03-28T21:56:07.346Z,10.73
2019-03-28T21:58:57.338Z,10.69
2019-03-28T22:01:46.958Z,10.77
2019-03-28T22:04:36.423Z,10.79
2019-03-28T22:07:25.930Z,10.83
2019-03-28T22:10:17.068Z,10.87
2019-03-28T22:13:06.198Z,10.85
2019-03-28T22:15:54.968Z,10.82
2019-03-28T22:18:44.668Z,10.73
2019-03-28T22:21:34.316Z,10.66
2019-03-28T22:24:23.210Z,10.71
2019-03-28T22:27:12.358Z,10.67
2019-03-28T22:30:01.854Z,10.50
2019-03-28T22:32:50.663Z,10.46
2019-03-28T22:35:40.501Z,10.53
2019-03-28T22:38:29.751Z,10.57
2019-03-28T22:41:19.186Z,10.45
2019-03-28T22:44:08.555Z,10.52
2019-03-28T22:46:57.827Z,10.55
2019-03-28T22:49:47.014Z,10.59
2019-03-28T22:52:36.066Z,10.61
2019-03-28T22:55:25.890Z,10.58
2019-03-28T22:58:15.114Z,10.64
2019-03-28T23:01:04.746Z,10.58
2019-03-28T23:03:54.249Z,10.53
2019-03-28T23:06:43.696Z,10.46
2019-03-28T23:09:32.633Z,10.48
2019-03-28T23:12:22.533Z,10.46
2019-03-28T23:15:11.886Z,10.48
2019-03-28T23:18:00.890Z,10.49
2019-03-28T23:20:50.518Z,10.43
2019-03-28T23:23:40.209Z,10.45
2019-03-28T23:26:29.550Z,10.44
2019-03-28T23:29:18.979Z,10.44
2019-03-28T23:32:08.340Z,10.43
2019-03-28T23:34:58.369Z,10.48
2019-03-28T23:37:47.362Z,10.43
2019-03-28T23:40:36.670Z,10.34
2019-03-28T23:43:26.187Z,10.28
2019-03-28T23:46:15.348Z,10.26
2019-03-28T23:49:05.157Z,10.29
2019-03-28T23:51:54.532Z,10.15
2019-03-28T23:54:43.870Z,10.17
2019-03-28T23:57:33.557Z,10.19
